Time;durP1;ratioP1;P1;durP2;ratioP2;P2;SDS_P1;SDS_P2;PMS_P1;PMS_P2;Temp;Humidity;BMP_temperature;BMP_pressure;BME280_temperature;BME280_humidity;BME280_pressure;Samples;Min_cycle;Max_cycle;Signal;HPM_P1;HPM_P2
2022/08/07 00:01:51;;;;;;;20.53;18.33;;;17.60;37.20;;;;;;5009891;28;20476;-62
2022/08/07 00:04:18;;;;;;;15.90;14.30;;;17.70;36.80;;;;;;5028120;28;20820;-62
2022/08/07 00:06:45;;;;;;;17.77;15.23;;;17.60;37.10;;;;;;5027846;28;21119;-63
2022/08/07 00:09:12;;;;;;;16.90;15.17;;;17.60;36.40;;;;;;5027347;28;20597;-63
2022/08/07 00:11:38;;;;;;;16.97;15.17;;;17.50;36.20;;;;;;5019726;28;20475;-63
2022/08/07 00:14:05;;;;;;;17.47;15.57;;;17.50;36.10;;;;;;5023814;28;20467;-63
2022/08/07 00:16:34;;;;;;;16.87;14.63;;;17.50;36.10;;;;;;5022388;28;20501;-63
2022/08/07 00:19:00;;;;;;;16.13;14.50;;;17.40;36.00;;;;;;5026286;28;20478;-63
2022/08/07 00:21:27;;;;;;;16.00;14.30;;;17.40;36.10;;;;;;5032251;28;20521;-63
2022/08/07 00:23:54;;;;;;;14.80;13.30;;;17.40;36.00;;;;;;5031975;28;20472;-63
2022/08/07 00:26:21;;;;;;;15.00;13.17;;;17.30;35.90;;;;;;5031939;28;20548;-63
2022/08/07 00:29:25;;;;;;;16.10;13.90;;;17.30;35.70;;;;;;5022799;28;20467;-64
2022/08/07 00:31:55;;;;;;;15.90;14.30;;;17.30;36.00;;;;;;5010982;28;20494;-62
2022/08/07 00:34:22;;;;;;;16.50;14.73;;;17.20;35.80;;;;;;5020667;28;20473;-63
2022/08/07 00:36:49;;;;;;;14.47;12.97;;;17.20;35.80;;;;;;5023399;28;20478;-63
2022/08/07 00:39:16;;;;;;;16.30;14.60;;;17.10;35.80;;;;;;5012303;28;20467;-63
2022/08/07 00:41:48;;;;;;;16.13;12.47;;;17.10;35.70;;;;;;5020425;28;20557;-63
2022/08/07 00:44:15;;;;;;;15.37;13.50;;;17.10;35.60;;;;;;5021011;28;21166;-62
2022/08/07 00:46:42;;;;;;;18.73;15.67;;;17.10;35.80;;;;;;5017810;28;20459;-62
2022/08/07 00:49:10;;;;;;;20.53;14.47;;;17.10;35.70;;;;;;5023899;28;20476;-62
2022/08/07 00:51:38;;;;;;;15.63;12.73;;;17.00;35.60;;;;;;5031949;28;20485;-62
2022/08/07 00:54:06;;;;;;;13.80;11.33;;;17.00;35.40;;;;;;5031502;28;20465;-63
2022/08/07 00:56:33;;;;;;;13.13;11.70;;;16.90;35.40;;;;;;5013955;28;20542;-62
2022/08/07 00:59:00;;;;;;;14.10;11.80;;;16.90;35.30;;;;;;5024673;28;20991;-61
2022/08/07 01:01:28;;;;;;;15.53;11.40;;;16.90;35.20;;;;;;5028497;28;20478;-61
2022/08/07 01:03:55;;;;;;;14.27;11.00;;;16.80;34.90;;;;;;5023641;28;20831;-61
2022/08/07 01:06:23;;;;;;;11.47;10.03;;;16.80;34.70;;;;;;5012062;28;20466;-61
2022/08/07 01:08:50;;;;;;;12.40;10.40;;;16.80;34.60;;;;;;5029991;28;20475;-61
2022/08/07 01:11:20;;;;;;;12.73;9.80;;;16.80;34.40;;;;;;5030135;28;21008;-61
2022/08/07 01:13:47;;;;;;;11.73;9.90;;;16.80;34.30;;;;;;5030690;28;20459;-61
2022/08/07 01:16:14;;;;;;;10.73;9.00;;;16.80;34.70;;;;;;5018661;28;20454;-61
2022/08/07 01:18:41;;;;;;;11.87;9.47;;;16.80;33.60;;;;;;5029115;28;20963;-61
2022/08/07 01:21:14;;;;;;;9.30;7.70;;;16.80;33.10;;;;;;5030172;28;20490;-61
2022/08/07 01:23:43;;;;;;;12.17;7.87;;;16.70;32.60;;;;;;5025039;28;20956;-61
2022/08/07 01:26:12;;;;;;;9.10;6.60;;;16.70;31.90;;;;;;5028796;28;20467;-61
2022/08/07 01:28:41;;;;;;;10.63;7.33;;;16.70;31.50;;;;;;5025785;28;20470;-61
2022/08/07 01:31:08;;;;;;;10.37;8.10;;;16.60;31.10;;;;;;5028286;28;20471;-61
2022/08/07 01:33:36;;;;;;;11.30;8.00;;;16.60;31.00;;;;;;5025106;28;20467;-61
2022/08/07 01:36:05;;;;;;;8.73;6.83;;;16.60;31.00;;;;;;5026757;28;20467;-61
2022/08/07 01:38:34;;;;;;;7.87;5.77;;;16.60;30.90;;;;;;5030329;28;20814;-62
2022/08/07 01:41:02;;;;;;;8.70;6.00;;;16.50;30.70;;;;;;5029055;28;20490;-61
2022/08/07 01:43:31;;;;;;;9.17;6.17;;;16.50;30.60;;;;;;5018173;28;20460;-61
2022/08/07 01:45:58;;;;;;;8.63;6.60;;;16.50;30.70;;;;;;5009889;28;20471;-61
2022/08/07 01:48:26;;;;;;;8.30;6.10;;;16.40;30.70;;;;;;5010146;28;20459;-62
2022/08/07 01:50:58;;;;;;;10.83;6.00;;;16.40;30.90;;;;;;5022379;28;20467;-61
2022/08/07 01:53:27;;;;;;;6.87;5.40;;;16.40;31.00;;;;;;5029713;28;20485;-61
2022/08/07 01:55:58;;;;;;;8.70;6.83;;;16.40;31.10;;;;;;5018957;28;20471;-62
2022/08/07 01:58:30;;;;;;;7.50;6.00;;;16.40;31.20;;;;;;5009891;28;20477;-61
2022/08/07 02:01:02;;;;;;;8.93;6.10;;;16.30;31.40;;;;;;5011524;28;20502;-61
2022/08/07 02:03:33;;;;;;;8.87;6.17;;;16.30;31.30;;;;;;5029567;28;20463;-61
2022/08/07 02:06:04;;;;;;;9.57;5.73;;;16.30;31.20;;;;;;5029255;28;20459;-61
2022/08/07 02:08:39;;;;;;;7.87;5.57;;;16.30;31.10;;;;;;5015992;28;20464;-61
2022/08/07 02:11:08;;;;;;;8.20;6.00;;;16.30;31.10;;;;;;5009194;28;20462;-61
2022/08/07 02:13:37;;;;;;;7.47;6.00;;;16.30;31.10;;;;;;5028921;28;20863;-60
2022/08/07 02:16:06;;;;;;;7.27;5.57;;;16.30;31.40;;;;;;5029490;28;20515;-61
2022/08/07 02:18:36;;;;;;;7.73;5.00;;;16.20;31.40;;;;;;5024051;28;20459;-61
2022/08/07 02:21:05;;;;;;;8.23;6.60;;;16.20;31.30;;;;;;5009765;28;20483;-61
2022/08/07 02:23:36;;;;;;;7.60;6.10;;;16.20;31.60;;;;;;5025094;28;20467;-61
2022/08/07 02:26:05;;;;;;;9.63;6.43;;;16.20;31.70;;;;;;5020653;28;20930;-61
2022/08/07 02:28:34;;;;;;;10.00;6.43;;;16.20;31.80;;;;;;5027889;28;20459;-61
2022/08/07 02:31:03;;;;;;;8.47;6.10;;;16.20;31.90;;;;;;5018526;28;20858;-61
2022/08/07 02:33:32;;;;;;;10.30;7.37;;;16.20;31.80;;;;;;5023962;28;20466;-60
2022/08/07 02:36:00;;;;;;;12.37;7.47;;;16.20;32.10;;;;;;5026883;28;20471;-61
2022/08/07 02:38:29;;;;;;;10.83;7.07;;;16.20;32.10;;;;;;5028962;28;20465;-61
2022/08/07 02:40:57;;;;;;;9.97;6.37;;;16.20;32.00;;;;;;5028664;28;20553;-61
2022/08/07 02:43:26;;;;;;;8.50;5.83;;;16.20;31.90;;;;;;5027911;28;20497;-61
2022/08/07 02:45:56;;;;;;;7.30;5.37;;;16.20;32.00;;;;;;5023249;28;20463;-61
2022/08/07 02:48:24;;;;;;;8.90;6.53;;;16.20;32.20;;;;;;5028623;28;20459;-61
2022/08/07 02:50:54;;;;;;;12.83;6.33;;;16.20;32.20;;;;;;5022033;28;20464;-61
2022/08/07 02:53:25;;;;;;;9.13;5.30;;;16.20;32.00;;;;;;5025124;28;20538;-61
2022/08/07 02:55:53;;;;;;;7.63;5.70;;;16.20;31.90;;;;;;5024148;28;20467;-61
2022/08/07 02:58:21;;;;;;;7.53;5.70;;;16.20;32.10;;;;;;5016756;28;20462;-61
2022/08/07 03:00:51;;;;;;;7.80;5.90;;;16.20;32.00;;;;;;5008256;28;20467;-61
2022/08/07 03:03:19;;;;;;;8.27;6.03;;;16.10;32.20;;;;;;5013498;28;20494;-63
2022/08/07 03:05:47;;;;;;;9.07;6.07;;;16.10;32.30;;;;;;5027668;28;20474;-63
2022/08/07 03:08:13;;;;;;;9.80;6.07;;;16.10;32.20;;;;;;5028600;28;20461;-62
2022/08/07 03:10:41;;;;;;;7.10;5.20;;;16.10;32.20;;;;;;5026082;28;20459;-63
2022/08/07 03:13:09;;;;;;;7.03;5.60;;;16.10;32.20;;;;;;5015200;28;20987;-63
2022/08/07 03:15:36;;;;;;;8.23;5.83;;;16.10;32.30;;;;;;5027844;28;20451;-62
2022/08/07 03:18:03;;;;;;;7.97;5.30;;;16.10;32.40;;;;;;5027978;28;20838;-62
2022/08/07 03:20:31;;;;;;;8.00;6.20;;;16.10;32.40;;;;;;5028837;28;20462;-62
2022/08/07 03:22:59;;;;;;;7.47;6.37;;;16.10;32.40;;;;;;5028449;28;20487;-62
2022/08/07 03:25:28;;;;;;;8.90;6.93;;;16.10;32.40;;;;;;5026575;28;20462;-62
2022/08/07 03:27:56;;;;;;;7.00;5.73;;;16.00;32.50;;;;;;5026528;28;20466;-62
2022/08/07 03:30:24;;;;;;;9.03;7.00;;;16.00;32.50;;;;;;5017543;28;20463;-63
2022/08/07 03:32:52;;;;;;;8.43;6.53;;;16.00;32.50;;;;;;5017614;28;20856;-64
2022/08/07 03:35:23;;;;;;;7.87;6.27;;;16.00;32.70;;;;;;5016656;28;20459;-62
2022/08/07 03:37:55;;;;;;;12.17;6.60;;;16.00;32.70;;;;;;5013498;28;20460;-63
2022/08/07 03:40:23;;;;;;;9.90;7.30;;;16.00;32.90;;;;;;5027399;28;20490;-63
2022/08/07 03:42:51;;;;;;;9.87;6.83;;;16.00;33.00;;;;;;5024300;28;20490;-61
2022/08/07 03:45:19;;;;;;;7.93;6.33;;;16.00;32.90;;;;;;5019276;28;20518;-62
2022/08/07 03:47:47;;;;;;;9.07;7.20;;;16.00;33.10;;;;;;5015465;28;20473;-62
2022/08/07 03:50:14;;;;;;;7.50;6.57;;;15.90;33.30;;;;;;5028237;28;20466;-62
2022/08/07 03:52:42;;;;;;;7.90;5.97;;;15.90;33.30;;;;;;5019115;28;20486;-62
2022/08/07 03:55:10;;;;;;;9.77;7.50;;;15.90;33.30;;;;;;5025071;28;20470;-63
2022/08/07 03:57:38;;;;;;;8.63;6.60;;;15.90;33.50;;;;;;5019483;28;20464;-62
2022/08/07 04:00:06;;;;;;;8.93;8.03;;;15.80;33.40;;;;;;5028314;28;20474;-63
2022/08/07 04:02:33;;;;;;;11.27;7.87;;;15.80;33.60;;;;;;5027370;28;20837;-63
2022/08/07 04:05:00;;;;;;;10.17;8.40;;;15.80;34.10;;;;;;5028094;28;20463;-62
2022/08/07 04:07:27;;;;;;;9.10;7.73;;;15.80;34.10;;;;;;5023524;28;20459;-62
2022/08/07 04:09:54;;;;;;;9.97;8.00;;;15.80;34.20;;;;;;5023671;28;20463;-63
2022/08/07 04:12:23;;;;;;;9.70;8.13;;;15.80;34.20;;;;;;5028052;28;20479;-62
2022/08/07 04:14:50;;;;;;;12.37;9.13;;;15.80;34.40;;;;;;5017254;28;20470;-62
2022/08/07 04:17:18;;;;;;;11.60;8.73;;;15.80;34.80;;;;;;5014451;28;20463;-64
2022/08/07 04:19:45;;;;;;;10.30;9.17;;;15.80;34.90;;;;;;5027232;28;21179;-62
2022/08/07 04:22:14;;;;;;;10.80;9.10;;;15.80;35.00;;;;;;5028349;28;20501;-63
2022/08/07 04:24:41;;;;;;;12.37;8.40;;;15.90;35.00;;;;;;5027935;28;20473;-63
2022/08/07 04:27:08;;;;;;;10.80;9.17;;;15.90;35.20;;;;;;5027236;28;20470;-63
2022/08/07 04:29:36;;;;;;;11.17;10.07;;;15.90;35.30;;;;;;5025705;28;20463;-62
2022/08/07 04:32:03;;;;;;;13.50;10.80;;;16.00;35.30;;;;;;5026660;28;20470;-64
2022/08/07 04:34:30;;;;;;;11.50;10.30;;;16.00;35.30;;;;;;5007638;28;20467;-63
2022/08/07 04:36:57;;;;;;;12.07;10.30;;;16.00;35.60;;;;;;5021261;28;20464;-62
2022/08/07 04:39:24;;;;;;;11.33;9.67;;;16.10;35.60;;;;;;5009523;28;20464;-62
2022/08/07 04:41:50;;;;;;;11.50;10.30;;;16.20;35.40;;;;;;5026349;28;20490;-62
2022/08/07 04:44:17;;;;;;;12.83;10.60;;;16.30;35.60;;;;;;5021304;28;20472;-62
2022/08/07 04:46:54;;;;;;;12.13;10.20;;;16.30;35.70;;;;;;5018767;28;20964;-63
2022/08/07 04:49:30;;;;;;;12.13;10.93;;;16.40;35.60;;;;;;5028035;28;21003;-63
2022/08/07 04:52:04;;;;;;;12.17;10.73;;;16.50;35.70;;;;;;5027004;28;20506;-62
2022/08/07 04:54:35;;;;;;;13.70;11.50;;;16.60;35.60;;;;;;5024201;28;20461;-63
2022/08/07 04:57:10;;;;;;;13.90;11.20;;;16.70;35.30;;;;;;5018000;28;20482;-63
2022/08/07 04:59:40;;;;;;;11.70;10.20;;;16.80;35.30;;;;;;5027338;28;20544;-62
2022/08/07 05:02:17;;;;;;;11.63;10.43;;;17.00;35.10;;;;;;5026315;28;20477;-63
2022/08/07 05:04:53;;;;;;;14.03;11.07;;;17.10;35.00;;;;;;5027539;28;20459;-62
2022/08/07 05:07:25;;;;;;;13.60;11.60;;;17.20;34.70;;;;;;5029815;28;20898;-62
2022/08/07 05:09:59;;;;;;;17.17;11.87;;;17.50;34.60;;;;;;5029218;28;20474;-62
2022/08/07 05:12:31;;;;;;;12.77;10.63;;;17.80;33.30;;;;;;5029649;28;20867;-62
2022/08/07 05:15:14;;;;;;;13.13;10.50;;;18.00;32.80;;;;;;5021474;28;20462;-63
2022/08/07 05:17:48;;;;;;;11.90;10.00;;;18.40;32.10;;;;;;5026363;28;20474;-62
2022/08/07 05:20:17;;;;;;;12.00;10.30;;;18.70;31.60;;;;;;5023984;28;20466;-63
2022/08/07 05:22:46;;;;;;;13.20;11.00;;;19.10;30.90;;;;;;5024002;28;21086;-62
2022/08/07 05:25:16;;;;;;;11.97;9.77;;;19.90;29.50;;;;;;5017617;28;20529;-62
2022/08/07 05:27:43;;;;;;;11.50;9.40;;;21.20;26.20;;;;;;5030010;28;20477;-62
2022/08/07 05:30:12;;;;;;;11.00;9.53;;;22.60;21.90;;;;;;5024872;28;20459;-63
2022/08/07 05:32:41;;;;;;;12.20;7.47;;;24.00;18.60;;;;;;5024633;28;20549;-62
2022/08/07 05:35:11;;;;;;;10.00;8.07;;;25.40;15.60;;;;;;5030646;28;20491;-62
2022/08/07 05:37:40;;;;;;;9.50;8.50;;;26.60;12.80;;;;;;5024913;28;20483;-63
2022/08/07 05:40:08;;;;;;;10.23;7.07;;;27.60;11.00;;;;;;5020088;28;20549;-62
2022/08/07 05:42:36;;;;;;;8.97;7.30;;;28.60;9.00;;;;;;5028842;28;20495;-63
2022/08/07 05:45:04;;;;;;;8.70;6.90;;;29.20;7.60;;;;;;5029961;28;20979;-63
2022/08/07 05:47:32;;;;;;;9.73;7.07;;;29.70;6.50;;;;;;5027160;28;20464;-64
2022/08/07 05:49:59;;;;;;;8.00;6.17;;;30.30;5.70;;;;;;5019731;28;20918;-63
2022/08/07 05:52:28;;;;;;;7.50;6.37;;;31.40;4.50;;;;;;5024556;28;20479;-62
2022/08/07 05:54:54;;;;;;;6.70;5.93;;;32.40;2.30;;;;;;5028494;28;20467;-63
2022/08/07 05:57:23;;;;;;;8.83;6.03;;;33.10;1.30;;;;;;5033080;28;20466;-64
2022/08/07 05:59:51;;;;;;;6.30;5.57;;;33.90;1.00;;;;;;5025591;28;20459;-64
2022/08/07 06:02:20;;;;;;;7.23;5.80;;;34.50;1.00;;;;;;5009868;28;20487;-63
2022/08/07 06:04:52;;;;;;;6.17;5.30;;;35.00;1.00;;;;;;5028838;28;20463;-63
2022/08/07 06:07:19;;;;;;;6.33;5.50;;;35.50;1.00;;;;;;5009998;28;20551;-63
2022/08/07 06:09:48;;;;;;;6.20;4.53;;;36.00;1.00;;;;;;5025487;28;20462;-63
2022/08/07 06:12:15;;;;;;;6.37;4.50;;;36.70;1.00;;;;;;5030063;28;20475;-64
2022/08/07 06:14:42;;;;;;;6.77;4.33;;;37.30;1.00;;;;;;5028767;28;20455;-64
2022/08/07 06:17:11;;;;;;;5.83;4.50;;;37.80;1.00;;;;;;5021973;28;20463;-64
2022/08/07 06:19:39;;;;;;;6.27;3.90;;;38.70;1.00;;;;;;5024461;28;20463;-64
2022/08/07 06:22:06;;;;;;;6.20;3.37;;;39.00;1.00;;;;;;5028840;28;20543;-63
2022/08/07 06:24:35;;;;;;;4.50;3.50;;;39.10;1.00;;;;;;5027407;28;20466;-65
2022/08/07 06:27:03;;;;;;;6.13;3.63;;;39.30;1.00;;;;;;5026085;28;20941;-63
2022/08/07 06:29:30;;;;;;;7.40;3.73;;;39.60;1.00;;;;;;5029437;28;20455;-63
2022/08/07 06:31:57;;;;;;;5.37;2.97;;;40.40;1.00;;;;;;5021913;28;20480;-63
2022/08/07 06:34:24;;;;;;;4.50;3.00;;;40.90;1.00;;;;;;5018099;28;20978;-62
2022/08/07 06:36:51;;;;;;;4.20;3.10;;;41.30;1.00;;;;;;5018557;28;20514;-62
2022/08/07 06:39:18;;;;;;;5.37;3.27;;;40.60;1.00;;;;;;5012107;28;20462;-62
2022/08/07 06:41:48;;;;;;;4.07;2.57;;;39.30;1.00;;;;;;5016556;28;20475;-66
2022/08/07 06:44:18;;;;;;;6.87;2.67;;;38.80;1.00;;;;;;5030094;28;20552;-62
2022/08/07 06:46:48;;;;;;;3.83;2.30;;;38.10;1.00;;;;;;5022499;28;20469;-62
2022/08/07 06:49:15;;;;;;;4.00;2.40;;;37.20;1.00;;;;;;5023634;28;20454;-61
2022/08/07 06:51:45;;;;;;;4.03;2.30;;;36.50;1.00;;;;;;5026070;28;21034;-62
2022/08/07 06:54:16;;;;;;;3.87;2.30;;;36.50;1.00;;;;;;5017615;28;20459;-62
2022/08/07 06:56:46;;;;;;;4.37;2.10;;;36.30;1.00;;;;;;5014218;28;20460;-62
2022/08/07 06:59:18;;;;;;;3.80;2.10;;;36.20;1.00;;;;;;5016079;28;20954;-62
2022/08/07 07:01:46;;;;;;;6.57;2.20;;;35.50;1.00;;;;;;5014997;28;20567;-62
2022/08/07 07:04:14;;;;;;;4.63;2.20;;;35.40;1.00;;;;;;5011643;28;20963;-62
2022/08/07 07:06:41;;;;;;;3.67;1.90;;;35.30;1.00;;;;;;5023735;28;20465;-62
2022/08/07 07:09:23;;;;;;;3.63;1.90;;;35.00;1.00;;;;;;5017694;28;20459;-62
2022/08/07 07:15:27;;;;;;;4.50;2.07;;;35.90;1.00;;;;;;5027325;28;20462;-61
2022/08/07 07:18:02;;;;;;;3.70;1.80;;;36.60;1.00;;;;;;5015920;28;20496;-62
2022/08/07 07:20:34;;;;;;;4.17;1.67;;;36.90;1.00;;;;;;5022398;28;20459;-62
2022/08/07 07:23:02;;;;;;;3.73;1.67;;;36.50;1.00;;;;;;5026482;28;20487;-62
2022/08/07 07:25:40;;;;;;;3.50;1.40;;;36.80;1.00;;;;;;5024203;28;20459;-62
2022/08/07 07:28:12;;;;;;;4.63;1.80;;;36.40;1.00;;;;;;5024222;28;20952;-62
2022/08/07 07:30:50;;;;;;;4.10;1.57;;;36.10;1.00;;;;;;5019179;28;20459;-62
2022/08/07 07:33:19;;;;;;;3.40;1.53;;;36.20;1.00;;;;;;5016640;28;20482;-62
2022/08/07 07:35:50;;;;;;;3.47;1.30;;;37.30;1.00;;;;;;5023438;28;20462;-62
2022/08/07 07:38:19;;;;;;;3.30;1.23;;;38.60;1.00;;;;;;5026850;28;20459;-62
2022/08/07 07:40:47;;;;;;;3.50;1.20;;;40.20;1.00;;;;;;5026828;28;20807;-61
2022/08/07 07:43:16;;;;;;;3.27;1.13;;;42.10;1.00;;;;;;5011484;28;20494;-62
2022/08/07 07:45:47;;;;;;;3.97;1.17;;;43.40;1.00;;;;;;5014481;28;20463;-62
2022/08/07 07:48:17;;;;;;;4.20;1.03;;;44.80;1.00;;;;;;5028596;28;20474;-61
2022/08/07 07:50:47;;;;;;;4.70;1.20;;;46.40;1.00;;;;;;5028791;28;20482;-62
2022/08/07 07:53:15;;;;;;;3.47;1.03;;;47.60;1.00;;;;;;5027865;28;20478;-62
2022/08/07 07:55:42;;;;;;;3.97;1.20;;;48.60;1.00;;;;;;5027634;28;20977;-62
2022/08/07 07:58:10;;;;;;;4.40;1.00;;;49.20;1.00;;;;;;5027110;28;20463;-62
2022/08/07 08:00:38;;;;;;;4.23;1.17;;;49.50;1.00;;;;;;5027384;28;20467;-61
2022/08/07 08:03:10;;;;;;;3.00;1.00;;;49.70;1.00;;;;;;5028098;28;20494;-62
2022/08/07 08:05:39;;;;;;;2.60;0.80;;;50.10;1.00;;;;;;5016811;28;20467;-62
2022/08/07 08:08:08;;;;;;;3.10;0.93;;;50.50;1.00;;;;;;5025802;28;20819;-62
2022/08/07 08:10:35;;;;;;;4.47;0.90;;;50.00;1.00;;;;;;5028143;28;20469;-62
2022/08/07 08:13:03;;;;;;;2.97;0.90;;;50.00;1.00;;;;;;5028314;28;20511;-61
2022/08/07 08:15:36;;;;;;;3.57;0.77;;;49.80;1.00;;;;;;5027980;28;20473;-62
2022/08/07 08:18:05;;;;;;;5.73;0.90;;;50.10;1.00;;;;;;5027068;28;20615;-62
2022/08/07 08:20:35;;;;;;;6.60;1.10;;;50.40;1.00;;;;;;5026817;28;20466;-62
2022/08/07 08:28:39;;;;;;;2.90;1.00;;;50.70;1.00;;;;;;5023070;28;20815;-63
2022/08/07 08:31:11;;;;;;;3.30;0.80;;;49.50;1.00;;;;;;5021034;28;21023;-62
2022/08/07 08:33:40;;;;;;;2.87;0.90;;;49.40;1.00;;;;;;5021450;28;20455;-62
2022/08/07 08:36:11;;;;;;;2.83;0.70;;;49.40;1.00;;;;;;5015554;28;20451;-62
2022/08/07 08:38:41;;;;;;;2.90;0.87;;;48.90;1.00;;;;;;5024739;28;20458;-62
2022/08/07 08:41:17;;;;;;;2.80;0.80;;;49.00;1.00;;;;;;5024105;28;20463;-62
2022/08/07 08:43:54;;;;;;;2.90;0.90;;;49.30;1.00;;;;;;5024409;28;20475;-62
2022/08/07 08:46:30;;;;;;;3.20;1.03;;;49.20;1.00;;;;;;5012042;28;20469;-62
2022/08/07 08:49:05;;;;;;;3.07;0.80;;;49.70;1.00;;;;;;5013444;28;20467;-61
2022/08/07 08:51:38;;;;;;;3.43;0.90;;;50.60;1.00;;;;;;5021675;28;20863;-62
2022/08/07 08:54:10;;;;;;;3.23;0.80;;;51.50;1.00;;;;;;5031311;28;20455;-62
2022/08/07 08:56:42;;;;;;;3.43;0.87;;;51.20;1.00;;;;;;5016548;28;20456;-62
2022/08/07 08:59:19;;;;;;;3.10;0.80;;;51.00;1.00;;;;;;5013658;28;20471;-62
2022/08/07 09:01:55;;;;;;;3.10;0.90;;;51.00;1.00;;;;;;5013593;28;20472;-62
2022/08/07 09:04:29;;;;;;;4.00;1.10;;;50.30;1.00;;;;;;5029821;28;20485;-62
2022/08/07 09:07:03;;;;;;;2.70;0.80;;;49.70;1.00;;;;;;5029723;28;20454;-62
2022/08/07 09:09:46;;;;;;;4.10;1.03;;;49.40;1.00;;;;;;5010846;28;20945;-62
2022/08/07 09:12:27;;;;;;;3.27;1.00;;;49.20;1.00;;;;;;5022670;28;20487;-62
2022/08/07 09:15:06;;;;;;;6.40;1.40;;;48.30;1.00;;;;;;5019207;28;20496;-62
2022/08/07 09:17:46;;;;;;;4.07;1.50;;;48.70;1.00;;;;;;5029452;28;20462;-62
2022/08/07 09:20:27;;;;;;;3.40;1.00;;;49.80;1.00;;;;;;5030739;28;20450;-62
2022/08/07 09:23:02;;;;;;;3.23;0.80;;;50.10;1.00;;;;;;5030115;28;20493;-63
2022/08/07 09:25:40;;;;;;;2.80;0.80;;;50.10;1.00;;;;;;5009441;28;20800;-62
2022/08/07 09:28:10;;;;;;;3.37;0.90;;;49.60;1.00;;;;;;5010545;28;20455;-62
2022/08/07 09:30:54;;;;;;;5.20;1.10;;;49.40;1.00;;;;;;5009928;28;20991;-62
2022/08/07 09:33:35;;;;;;;3.60;1.03;;;49.20;1.00;;;;;;5009751;28;20472;-62
2022/08/07 09:36:09;;;;;;;3.07;0.83;;;49.80;1.00;;;;;;5014797;28;20467;-63
2022/08/07 09:38:46;;;;;;;4.20;1.10;;;50.20;1.00;;;;;;5018601;28;20968;-62
2022/08/07 09:41:28;;;;;;;3.10;1.00;;;50.20;1.00;;;;;;5015617;28;20463;-62
2022/08/07 09:44:03;;;;;;;4.23;0.93;;;50.20;1.00;;;;;;5010831;28;20476;-63
2022/08/07 09:46:42;;;;;;;3.00;1.00;;;49.60;1.00;;;;;;5029191;28;20939;-62
2022/08/07 09:49:21;;;;;;;3.00;1.10;;;49.90;1.00;;;;;;5012412;28;20886;-63
2022/08/07 09:52:00;;;;;;;4.40;0.90;;;50.20;1.00;;;;;;5009626;28;20497;-62
2022/08/07 09:54:35;;;;;;;3.17;1.00;;;49.50;1.00;;;;;;5024519;28;20450;-62
2022/08/07 09:57:32;;;;;;;2.93;0.87;;;48.80;1.00;;;;;;5029561;28;20454;-63
2022/08/07 10:00:08;;;;;;;4.40;0.73;;;48.90;1.00;;;;;;5029348;28;20466;-62
2022/08/07 10:03:01;;;;;;;4.13;1.07;;;48.50;1.00;;;;;;5010360;28;20574;-62
2022/08/07 10:06:06;;;;;;;3.63;1.00;;;47.50;1.00;;;;;;5015565;28;20455;-62
2022/08/07 10:08:46;;;;;;;6.50;1.23;;;47.20;1.00;;;;;;4973158;28;20970;-62
2022/08/07 10:11:28;;;;;;;3.73;1.10;;;46.60;1.00;;;;;;5029627;28;20458;-62
2022/08/07 10:14:08;;;;;;;3.30;0.87;;;46.70;1.00;;;;;;5030079;28;20463;-61
2022/08/07 10:16:49;;;;;;;4.70;1.10;;;46.10;1.00;;;;;;5029138;28;20459;-62
2022/08/07 10:19:34;;;;;;;3.87;1.00;;;44.40;1.00;;;;;;5010027;28;20460;-62
2022/08/07 10:22:21;;;;;;;3.40;1.17;;;41.70;1.00;;;;;;5011313;28;20512;-61
2022/08/07 10:25:08;;;;;;;3.60;1.20;;;39.80;1.00;;;;;;5008785;28;20483;-62
2022/08/07 10:27:49;;;;;;;4.20;1.40;;;38.00;1.00;;;;;;5022703;28;20470;-62
2022/08/07 10:30:19;;;;;;;4.57;1.20;;;36.70;1.00;;;;;;5022586;28;20458;-61
2022/08/07 10:33:28;;;;;;;5.70;1.60;;;35.40;1.00;;;;;;5009914;28;20582;-62
2022/08/07 10:36:14;;;;;;;4.67;1.53;;;34.30;1.00;;;;;;4972468;28;20495;-62
2022/08/07 10:42:22;;;;;;;3.80;1.20;;;33.20;1.00;;;;;;5027352;28;20477;-61
2022/08/07 10:45:09;;;;;;;4.50;1.83;;;32.50;1.00;;;;;;5019355;28;20475;-62
2022/08/07 10:47:45;;;;;;;3.30;1.43;;;31.80;1.00;;;;;;5027992;28;20513;-61
2022/08/07 10:50:20;;;;;;;3.70;1.40;;;31.20;1.00;;;;;;5029045;28;20462;-61
2022/08/07 10:52:55;;;;;;;3.60;1.20;;;30.80;1.00;;;;;;5029120;28;20698;-61
2022/08/07 10:55:27;;;;;;;4.43;1.73;;;30.40;1.00;;;;;;5022450;28;20465;-62
2022/08/07 10:58:13;;;;;;;5.43;1.63;;;30.10;1.00;;;;;;5021770;28;20542;-61
2022/08/07 11:00:52;;;;;;;3.50;1.50;;;29.70;1.00;;;;;;5008383;28;20674;-61
2022/08/07 11:03:33;;;;;;;3.40;1.53;;;29.40;1.00;;;;;;5008179;28;20930;-60
2022/08/07 11:06:08;;;;;;;3.77;1.77;;;29.40;1.00;;;;;;5008809;28;20890;-62
2022/08/07 11:08:40;;;;;;;4.10;1.60;;;29.50;1.00;;;;;;5020651;28;20970;-61
2022/08/07 11:11:11;;;;;;;4.30;1.50;;;29.40;1.00;;;;;;5012823;28;20515;-61
2022/08/07 11:13:42;;;;;;;4.47;1.60;;;29.40;1.00;;;;;;5016162;28;20535;-61
2022/08/07 11:16:17;;;;;;;4.30;1.70;;;29.40;1.00;;;;;;5009357;28;20551;-61
2022/08/07 11:18:50;;;;;;;4.87;1.90;;;29.50;1.00;;;;;;5017783;28;20465;-61
2022/08/07 11:21:27;;;;;;;5.33;2.00;;;29.50;1.00;;;;;;5028751;28;20454;-62
2022/08/07 11:24:08;;;;;;;4.50;1.83;;;29.40;1.00;;;;;;5028009;28;20537;-61
2022/08/07 11:26:41;;;;;;;3.80;1.80;;;29.30;1.00;;;;;;5008740;28;20517;-61
2022/08/07 11:29:14;;;;;;;4.60;1.90;;;29.20;1.00;;;;;;5026191;28;20459;-62
2022/08/07 11:31:51;;;;;;;3.60;1.60;;;29.20;1.00;;;;;;5027981;28;20629;-62
2022/08/07 11:34:24;;;;;;;4.43;1.87;;;29.20;1.00;;;;;;5028707;28;20533;-61
2022/08/07 11:37:01;;;;;;;3.50;1.53;;;29.00;1.00;;;;;;5022104;28;20478;-62
2022/08/07 11:39:48;;;;;;;5.53;2.47;;;28.90;1.00;;;;;;5020765;28;20469;-61
2022/08/07 11:42:18;;;;;;;6.20;2.03;;;28.70;1.00;;;;;;5028679;28;20479;-62
2022/08/07 11:44:54;;;;;;;3.67;1.80;;;28.80;1.40;;;;;;5027914;28;21002;-62
2022/08/07 11:47:37;;;;;;;4.00;1.90;;;28.80;1.20;;;;;;5008767;28;20465;-62
2022/08/07 11:50:16;;;;;;;3.83;1.80;;;28.80;1.00;;;;;;5018652;28;20971;-61
2022/08/07 11:52:55;;;;;;;3.73;1.80;;;28.60;1.00;;;;;;5022406;28;20483;-62
2022/08/07 11:55:34;;;;;;;3.60;1.80;;;28.50;1.70;;;;;;5008159;28;20456;-61
2022/08/07 11:58:11;;;;;;;3.80;1.70;;;28.50;1.10;;;;;;5008339;28;20460;-61
2022/08/07 12:00:45;;;;;;;3.87;1.97;;;28.60;1.70;;;;;;5007989;28;20479;-61
2022/08/07 12:03:33;;;;;;;3.73;1.70;;;28.70;1.80;;;;;;5015553;28;21037;-61
2022/08/07 12:06:17;;;;;;;3.87;1.90;;;28.70;1.00;;;;;;5027704;28;20451;-61
2022/08/07 12:08:52;;;;;;;4.30;1.60;;;28.50;1.00;;;;;;5028203;28;20461;-61
2022/08/07 12:11:24;;;;;;;3.70;1.60;;;28.40;1.60;;;;;;5027844;28;20848;-61
2022/08/07 12:13:56;;;;;;;4.27;1.70;;;28.20;1.00;;;;;;5027072;28;20475;-62
2022/08/07 12:16:28;;;;;;;4.30;2.00;;;28.00;1.70;;;;;;5030443;28;20463;-62
2022/08/07 12:19:06;;;;;;;3.80;1.50;;;27.80;1.90;;;;;;5031870;28;20498;-61
2022/08/07 12:21:41;;;;;;;3.77;1.77;;;27.50;2.00;;;;;;5012568;28;20483;-61
2022/08/07 12:24:14;;;;;;;3.70;1.60;;;27.30;2.30;;;;;;5023855;28;20663;-61
2022/08/07 12:26:45;;;;;;;5.13;1.90;;;27.20;2.60;;;;;;5031568;28;20512;-61
2022/08/07 12:29:17;;;;;;;4.40;2.00;;;27.20;2.70;;;;;;5028741;28;20459;-61
2022/08/07 12:31:49;;;;;;;5.70;1.80;;;27.00;2.30;;;;;;5031528;28;20481;-61
2022/08/07 12:34:19;;;;;;;3.90;1.80;;;26.90;2.40;;;;;;5031295;28;20462;-60
2022/08/07 12:36:46;;;;;;;4.10;1.77;;;27.00;4.10;;;;;;5024792;28;20523;-60
2022/08/07 12:39:16;;;;;;;3.60;1.63;;;27.20;4.10;;;;;;5011689;28;21011;-61
2022/08/07 12:41:43;;;;;;;4.00;1.73;;;27.30;3.50;;;;;;5011491;28;20566;-61
2022/08/07 12:44:13;;;;;;;4.60;1.60;;;27.20;2.70;;;;;;5011772;28;20502;-62
2022/08/07 12:46:50;;;;;;;3.90;1.90;;;27.20;3.00;;;;;;5024824;28;20462;-61
2022/08/07 12:49:24;;;;;;;3.63;1.80;;;27.20;2.00;;;;;;5024644;28;20550;-61
2022/08/07 12:52:00;;;;;;;5.07;1.60;;;27.20;2.90;;;;;;5031445;28;20489;-61
2022/08/07 12:54:35;;;;;;;4.60;1.80;;;27.30;3.10;;;;;;5025471;28;20454;-61
2022/08/07 12:57:05;;;;;;;4.57;1.40;;;27.50;2.80;;;;;;5029748;28;20466;-61
2022/08/07 12:59:35;;;;;;;3.50;1.60;;;27.60;2.50;;;;;;5030984;28;20458;-61
2022/08/07 13:02:16;;;;;;;4.27;1.50;;;27.60;2.20;;;;;;5030456;28;20483;-62
2022/08/07 13:05:03;;;;;;;6.23;1.90;;;27.70;1.60;;;;;;5031361;28;20510;-61
2022/08/07 13:07:50;;;;;;;4.83;1.40;;;27.80;1.80;;;;;;5025867;28;20463;-61
2022/08/07 13:10:32;;;;;;;3.70;1.60;;;27.80;1.00;;;;;;5019217;28;20465;-61
2022/08/07 13:13:17;;;;;;;3.63;1.43;;;27.80;1.00;;;;;;5030854;28;20475;-62
2022/08/07 13:15:53;;;;;;;8.43;2.13;;;27.80;1.70;;;;;;5030950;28;21094;-61
2022/08/07 13:18:30;;;;;;;3.87;1.80;;;27.80;1.00;;;;;;5036196;28;20462;-61
2022/08/07 13:21:04;;;;;;;4.20;1.93;;;27.80;1.60;;;;;;5030953;28;21138;-62
2022/08/07 13:23:39;;;;;;;4.50;1.90;;;27.80;1.80;;;;;;5031052;28;20597;-61
2022/08/07 13:26:14;;;;;;;5.03;1.53;;;27.90;1.40;;;;;;5024711;28;20493;-62